Accueil
METAR-TAF:

METAR-TAF

Aéroports :

Base aérienne de Coxyde

Coxyde, Belgique

latitude: 51-05N, longitude: 002-39E, altitude: 4 m

METAR: absent

Heure: 18:36 (16:36 UTC)

Prévision

Le bulletin a été fait il y a 4 heures et 55 minutes, à 11:41 UTC
Prévision valable du 21 à 13 UTC au 21 à 22 UTC
Vent 22 kt de ouest avec des rafales jusqu'à 32 kt
Visibilité 10 km ou plus
Quelques nuages à une hauteur de 3000 ft
Temporairement
du 21 à 15 UTC au 21 à 18 UTC
Vent 27 kt de ouest avec des rafales jusqu'à 40 kt

TAF: EBFN 211141Z 2113/2122 27022G32KT 9999 FEW030 TEMPO 2115/2118 26027G40KT

Observations et prévisions météorologiques de plus de 4000 aéroports (messages METAR et TAF).

Les stations disponibles sont représentées par des disques jaunes et rouges sur la carte.

Passer la souris dessus pour voir le nom de la station.

Cliquer dessus pour voir les observations et prévisions météorologiques.

Pour changer de carte: cliquez sur les boutons verts avec une croix noire pour zoomer, sur le bouton vert avec un tiret pour effectuer un zoom arrière, ou sur les flèches vertes pour les cartes adjacentes.


METAR-TAF: